sensor_id;sensor_type;location;lat;lon;timestamp;pressure;altitude;pressure_sealevel;temperature;humidity
4858;BME280;58975;51.978;8.472;2022-07-29T00:00:28;100462.50;;;17.08;100.00
4858;BME280;58975;51.978;8.472;2022-07-29T00:05:25;100445.50;;;16.99;100.00
4858;BME280;58975;51.978;8.472;2022-07-29T00:10:21;100439.94;;;16.93;100.00
4858;BME280;58975;51.978;8.472;2022-07-29T00:15:18;100439.09;;;16.92;100.00
4858;BME280;58975;51.978;8.472;2022-07-29T00:20:14;100428.69;;;16.97;100.00
4858;BME280;58975;51.978;8.472;2022-07-29T00:25:12;100419.78;;;16.97;100.00
4858;BME280;58975;51.978;8.472;2022-07-29T00:30:09;100407.47;;;16.94;100.00
4858;BME280;58975;51.978;8.472;2022-07-29T00:35:06;100413.34;;;16.90;100.00
4858;BME280;58975;51.978;8.472;2022-07-29T00:40:21;100416.72;;;16.92;100.00
4858;BME280;58975;51.978;8.472;2022-07-29T00:45:19;100414.38;;;16.89;100.00
4858;BME280;58975;51.978;8.472;2022-07-29T00:50:16;100419.06;;;16.87;100.00
4858;BME280;58975;51.978;8.472;2022-07-29T00:55:14;100424.44;;;16.87;100.00
4858;BME280;58975;51.978;8.472;2022-07-29T01:00:19;100417.50;;;16.76;100.00
4858;BME280;58975;51.978;8.472;2022-07-29T01:05:21;100404.88;;;16.69;100.00
4858;BME280;58975;51.978;8.472;2022-07-29T01:10:19;100393.41;;;16.59;100.00
4858;BME280;58975;51.978;8.472;2022-07-29T01:15:17;100381.25;;;16.46;100.00
4858;BME280;58975;51.978;8.472;2022-07-29T01:20:20;100380.53;;;16.44;100.00
4858;BME280;58975;51.978;8.472;2022-07-29T01:25:35;100384.22;;;16.43;100.00
4858;BME280;58975;51.978;8.472;2022-07-29T01:30:41;100377.19;;;16.50;100.00
4858;BME280;58975;51.978;8.472;2022-07-29T01:35:41;100367.47;;;16.49;100.00
4858;BME280;58975;51.978;8.472;2022-07-29T01:40:51;100367.47;;;16.49;100.00
4858;BME280;58975;51.978;8.472;2022-07-29T01:46:09;100359.53;;;16.40;100.00
4858;BME280;58975;51.978;8.472;2022-07-29T01:51:14;100352.28;;;16.32;100.00
4858;BME280;58975;51.978;8.472;2022-07-29T01:56:12;100333.09;;;16.27;100.00
4858;BME280;58975;51.978;8.472;2022-07-29T02:01:10;100324.72;;;16.30;100.00
4858;BME280;58975;51.978;8.472;2022-07-29T02:06:08;100339.16;;;16.29;100.00
4858;BME280;58975;51.978;8.472;2022-07-29T02:11:06;100329.94;;;16.32;100.00
4858;BME280;58975;51.978;8.472;2022-07-29T02:16:05;100347.25;;;16.37;100.00
4858;BME280;58975;51.978;8.472;2022-07-29T02:21:03;100333.13;;;16.35;100.00
4858;BME280;58975;51.978;8.472;2022-07-29T02:26:10;100313.44;;;16.19;100.00
4858;BME280;58975;51.978;8.472;2022-07-29T02:31:09;100318.03;;;16.00;100.00
4858;BME280;58975;51.978;8.472;2022-07-29T02:36:06;100319.91;;;16.08;100.00
4858;BME280;58975;51.978;8.472;2022-07-29T02:41:07;100322.28;;;16.11;100.00
4858;BME280;58975;51.978;8.472;2022-07-29T02:46:08;100318.28;;;16.15;100.00
4858;BME280;58975;51.978;8.472;2022-07-29T02:51:28;100315.53;;;15.99;100.00
4858;BME280;58975;51.978;8.472;2022-07-29T02:56:40;100321.50;;;15.93;100.00
4858;BME280;58975;51.978;8.472;2022-07-29T03:01:40;100314.44;;;15.84;100.00
4858;BME280;58975;51.978;8.472;2022-07-29T03:06:38;100319.94;;;15.82;100.00
4858;BME280;58975;51.978;8.472;2022-07-29T03:11:35;100323.53;;;15.91;100.00
4858;BME280;58975;51.978;8.472;2022-07-29T03:16:41;100311.63;;;15.93;100.00
4858;BME280;58975;51.978;8.472;2022-07-29T03:21:38;100314.78;;;15.89;100.00
4858;BME280;58975;51.978;8.472;2022-07-29T03:26:34;100321.47;;;15.85;100.00
4858;BME280;58975;51.978;8.472;2022-07-29T03:31:31;100320.78;;;15.83;100.00
4858;BME280;58975;51.978;8.472;2022-07-29T03:36:28;100320.09;;;15.81;100.00
4858;BME280;58975;51.978;8.472;2022-07-29T03:41:25;100313.16;;;15.70;100.00
4858;BME280;58975;51.978;8.472;2022-07-29T03:46:23;100311.94;;;15.65;100.00
4858;BME280;58975;51.978;8.472;2022-07-29T03:51:20;100313.31;;;15.69;100.00
4858;BME280;58975;51.978;8.472;2022-07-29T03:56:32;100308.78;;;15.69;100.00
4858;BME280;58975;51.978;8.472;2022-07-29T04:01:29;100315.19;;;15.68;100.00
4858;BME280;58975;51.978;8.472;2022-07-29T04:06:26;100319.31;;;15.63;100.00
4858;BME280;58975;51.978;8.472;2022-07-29T04:11:22;100313.25;;;15.60;100.00
4858;BME280;58975;51.978;8.472;2022-07-29T04:16:18;100307.53;;;15.55;100.00
4858;BME280;58975;51.978;8.472;2022-07-29T04:21:15;100309.91;;;15.58;100.00
4858;BME280;58975;51.978;8.472;2022-07-29T04:26:11;100318.06;;;15.75;100.00
4858;BME280;58975;51.978;8.472;2022-07-29T04:31:08;100320.78;;;15.83;100.00
4858;BME280;58975;51.978;8.472;2022-07-29T04:36:05;100325.56;;;15.97;100.00
4858;BME280;58975;51.978;8.472;2022-07-29T04:41:21;100313.81;;;15.98;100.00
4858;BME280;58975;51.978;8.472;2022-07-29T04:46:18;100309.13;;;16.00;100.00
4858;BME280;58975;51.978;8.472;2022-07-29T04:51:15;100310.84;;;16.09;100.00
4858;BME280;58975;51.978;8.472;2022-07-29T04:56:12;100314.63;;;16.24;100.00
4858;BME280;58975;51.978;8.472;2022-07-29T05:01:08;100322.38;;;16.35;100.00
4858;BME280;58975;51.978;8.472;2022-07-29T05:06:05;100323.50;;;16.59;100.00
4858;BME280;58975;51.978;8.472;2022-07-29T05:11:01;100320.00;;;16.58;100.00
4858;BME280;58975;51.978;8.472;2022-07-29T05:16:08;100324.63;;;16.56;100.00
4858;BME280;58975;51.978;8.472;2022-07-29T05:21:05;100313.75;;;16.58;100.00
4858;BME280;58975;51.978;8.472;2022-07-29T05:26:01;100310.59;;;16.62;100.00
4858;BME280;58975;51.978;8.472;2022-07-29T05:30:58;100307.06;;;16.70;100.00
4858;BME280;58975;51.978;8.472;2022-07-29T05:35:54;100308.44;;;16.82;100.00
4858;BME280;58975;51.978;8.472;2022-07-29T05:40:58;100306.94;;;16.95;100.00
4858;BME280;58975;51.978;8.472;2022-07-29T05:45:56;100310.16;;;17.15;100.00
4858;BME280;58975;51.978;8.472;2022-07-29T05:50:52;100306.47;;;17.24;100.00
4858;BME280;58975;51.978;8.472;2022-07-29T05:55:49;100319.91;;;17.24;100.00
4858;BME280;58975;51.978;8.472;2022-07-29T06:00:46;100328.00;;;17.32;100.00
4858;BME280;58975;51.978;8.472;2022-07-29T06:05:42;100334.19;;;17.33;100.00
4858;BME280;58975;51.978;8.472;2022-07-29T06:10:38;100338.41;;;17.35;100.00
4858;BME280;58975;51.978;8.472;2022-07-29T06:15:35;100348.19;;;17.44;100.00
4858;BME280;58975;51.978;8.472;2022-07-29T06:20:31;100345.66;;;17.59;100.00
4858;BME280;58975;51.978;8.472;2022-07-29T06:25:28;100342.97;;;17.59;100.00
4858;BME280;58975;51.978;8.472;2022-07-29T06:30:25;100337.72;;;17.74;100.00
4858;BME280;58975;51.978;8.472;2022-07-29T06:35:22;100344.47;;;17.78;100.00
4858;BME280;58975;51.978;8.472;2022-07-29T06:40:41;100360.97;;;17.75;100.00
4858;BME280;58975;51.978;8.472;2022-07-29T06:45:56;100356.41;;;17.83;100.00
4858;BME280;58975;51.978;8.472;2022-07-29T06:50:52;100358.94;;;17.85;100.00
4858;BME280;58975;51.978;8.472;2022-07-29T06:55:50;100352.22;;;17.73;100.00
4858;BME280;58975;51.978;8.472;2022-07-29T07:00:47;100347.16;;;17.86;100.00
4858;BME280;58975;51.978;8.472;2022-07-29T07:05:44;100361.03;;;18.22;100.00
4858;BME280;58975;51.978;8.472;2022-07-29T07:10:42;100352.97;;;18.61;100.00
4858;BME280;58975;51.978;8.472;2022-07-29T07:15:38;100368.00;;;18.86;100.00
4858;BME280;58975;51.978;8.472;2022-07-29T07:20:36;100365.75;;;18.98;100.00
4858;BME280;58975;51.978;8.472;2022-07-29T07:25:32;100361.66;;;19.02;100.00
4858;BME280;58975;51.978;8.472;2022-07-29T07:30:28;100363.47;;;19.09;100.00
4858;BME280;58975;51.978;8.472;2022-07-29T07:35:25;100369.06;;;19.08;100.00
4858;BME280;58975;51.978;8.472;2022-07-29T07:40:24;100367.91;;;19.02;100.00
4858;BME280;58975;51.978;8.472;2022-07-29T07:45:20;100368.53;;;19.12;100.00
4858;BME280;58975;51.978;8.472;2022-07-29T07:50:16;100374.75;;;19.44;100.00
4858;BME280;58975;51.978;8.472;2022-07-29T07:55:16;100378.00;;;19.76;100.00
4858;BME280;58975;51.978;8.472;2022-07-29T08:00:14;100383.00;;;20.02;100.00
4858;BME280;58975;51.978;8.472;2022-07-29T08:05:12;100391.59;;;20.35;99.01
4858;BME280;58975;51.978;8.472;2022-07-29T08:10:14;100382.91;;;20.54;90.65
4858;BME280;58975;51.978;8.472;2022-07-29T08:15:12;100376.44;;;20.85;93.19
4858;BME280;58975;51.978;8.472;2022-07-29T08:20:09;100380.94;;;21.13;82.27
4858;BME280;58975;51.978;8.472;2022-07-29T08:25:06;100386.03;;;21.87;78.55
4858;BME280;58975;51.978;8.472;2022-07-29T08:30:04;100392.16;;;22.23;71.34
4858;BME280;58975;51.978;8.472;2022-07-29T08:35:00;100391.72;;;22.20;72.95
4858;BME280;58975;51.978;8.472;2022-07-29T08:39:57;100385.22;;;22.55;70.59
4858;BME280;58975;51.978;8.472;2022-07-29T08:44:54;100393.81;;;22.99;64.15
4858;BME280;58975;51.978;8.472;2022-07-29T08:49:52;100385.38;;;24.01;60.41
4858;BME280;58975;51.978;8.472;2022-07-29T08:54:48;100381.81;;;24.27;60.08
4858;BME280;58975;51.978;8.472;2022-07-29T08:59:46;100374.13;;;24.75;55.55
4858;BME280;58975;51.978;8.472;2022-07-29T09:04:43;100371.59;;;24.80;56.43
4858;BME280;58975;51.978;8.472;2022-07-29T09:09:39;100381.28;;;25.20;58.28
4858;BME280;58975;51.978;8.472;2022-07-29T09:14:36;100365.91;;;25.26;53.51
4858;BME280;58975;51.978;8.472;2022-07-29T09:19:34;100364.09;;;25.20;53.52
4858;BME280;58975;51.978;8.472;2022-07-29T09:24:42;100363.66;;;25.54;50.23
4858;BME280;58975;51.978;8.472;2022-07-29T09:29:39;100362.31;;;25.01;54.84
4858;BME280;58975;51.978;8.472;2022-07-29T09:34:36;100354.63;;;24.20;56.52
4858;BME280;58975;51.978;8.472;2022-07-29T09:39:35;100356.31;;;23.42;56.46
4858;BME280;58975;51.978;8.472;2022-07-29T09:44:49;100349.56;;;23.25;61.23
4858;BME280;58975;51.978;8.472;2022-07-29T09:54:48;100351.09;;;24.77;58.10
4858;BME280;58975;51.978;8.472;2022-07-29T09:59:56;100345.22;;;24.10;63.32
4858;BME280;58975;51.978;8.472;2022-07-29T10:04:53;100336.69;;;23.67;61.55
4858;BME280;58975;51.978;8.472;2022-07-29T10:09:56;100336.81;;;24.88;56.32
4858;BME280;58975;51.978;8.472;2022-07-29T10:14:54;100343.84;;;24.52;54.00
4858;BME280;58975;51.978;8.472;2022-07-29T10:19:50;100347.50;;;24.19;54.45
4858;BME280;58975;51.978;8.472;2022-07-29T10:24:47;100344.59;;;24.01;57.75
4858;BME280;58975;51.978;8.472;2022-07-29T10:29:44;100341.84;;;24.27;57.48
4858;BME280;58975;51.978;8.472;2022-07-29T10:35:06;100340.59;;;24.87;53.80
4858;BME280;58975;51.978;8.472;2022-07-29T10:40:22;100342.25;;;24.88;54.11
4858;BME280;58975;51.978;8.472;2022-07-29T10:45:40;100340.13;;;24.46;53.75
4858;BME280;58975;51.978;8.472;2022-07-29T10:50:57;100335.81;;;24.19;54.63
4858;BME280;58975;51.978;8.472;2022-07-29T10:55:54;100322.38;;;25.75;53.45
4858;BME280;58975;51.978;8.472;2022-07-29T11:00:54;100317.88;;;26.06;49.79
4858;BME280;58975;51.978;8.472;2022-07-29T11:05:56;100321.91;;;25.78;50.81
4858;BME280;58975;51.978;8.472;2022-07-29T11:11:30;100327.09;;;26.05;47.52
4858;BME280;58975;51.978;8.472;2022-07-29T11:16:57;100334.47;;;26.04;50.61
4858;BME280;58975;51.978;8.472;2022-07-29T11:21:55;100331.50;;;25.87;49.20
4858;BME280;58975;51.978;8.472;2022-07-29T11:32:15;100329.09;;;26.70;46.79
4858;BME280;58975;51.978;8.472;2022-07-29T11:37:20;100335.44;;;26.82;47.93
4858;BME280;58975;51.978;8.472;2022-07-29T11:47:29;100333.50;;;26.71;48.14
4858;BME280;58975;51.978;8.472;2022-07-29T11:52:41;100327.72;;;27.09;45.36
4858;BME280;58975;51.978;8.472;2022-07-29T11:57:56;100314.41;;;26.53;46.83
4858;BME280;58975;51.978;8.472;2022-07-29T12:03:02;100313.94;;;26.56;45.75
4858;BME280;58975;51.978;8.472;2022-07-29T12:08:16;100315.97;;;25.63;49.77
4858;BME280;58975;51.978;8.472;2022-07-29T12:13:20;100307.47;;;26.69;47.13
4858;BME280;58975;51.978;8.472;2022-07-29T12:18:18;100316.22;;;27.07;47.40
4858;BME280;58975;51.978;8.472;2022-07-29T12:23:19;100313.81;;;26.33;46.76
4858;BME280;58975;51.978;8.472;2022-07-29T12:28:16;100314.00;;;26.13;49.76
4858;BME280;58975;51.978;8.472;2022-07-29T12:33:24;100310.41;;;25.45;48.06
4858;BME280;58975;51.978;8.472;2022-07-29T12:38:22;100311.56;;;25.62;49.48
4858;BME280;58975;51.978;8.472;2022-07-29T12:43:23;100322.66;;;25.67;53.17
4858;BME280;58975;51.978;8.472;2022-07-29T12:48:39;100304.91;;;24.95;50.93
4858;BME280;58975;51.978;8.472;2022-07-29T12:53:37;100307.63;;;25.58;53.48
4858;BME280;58975;51.978;8.472;2022-07-29T12:58:39;100292.88;;;26.27;49.80
4858;BME280;58975;51.978;8.472;2022-07-29T13:09:05;100295.88;;;26.01;50.27
4858;BME280;58975;51.978;8.472;2022-07-29T13:14:03;100301.38;;;26.19;51.32
4858;BME280;58975;51.978;8.472;2022-07-29T13:19:07;100293.59;;;26.16;50.22
4858;BME280;58975;51.978;8.472;2022-07-29T13:24:07;100295.13;;;25.44;49.13
4858;BME280;58975;51.978;8.472;2022-07-29T13:29:04;100301.19;;;24.83;51.38
4858;BME280;58975;51.978;8.472;2022-07-29T13:34:02;100297.59;;;24.45;56.25
4858;BME280;58975;51.978;8.472;2022-07-29T13:38:58;100279.31;;;24.14;55.21
4858;BME280;58975;51.978;8.472;2022-07-29T13:43:55;100278.84;;;24.24;58.89
4858;BME280;58975;51.978;8.472;2022-07-29T13:48:52;100287.63;;;24.19;57.88
4858;BME280;58975;51.978;8.472;2022-07-29T13:53:48;100283.47;;;24.03;57.00
4858;BME280;58975;51.978;8.472;2022-07-29T13:58:45;100288.09;;;23.96;57.74
4858;BME280;58975;51.978;8.472;2022-07-29T14:03:41;100282.28;;;23.73;60.82
4858;BME280;58975;51.978;8.472;2022-07-29T14:08:41;100269.34;;;23.75;62.64
4858;BME280;58975;51.978;8.472;2022-07-29T14:13:37;100272.03;;;23.69;62.44
4858;BME280;58975;51.978;8.472;2022-07-29T14:18:35;100271.41;;;23.86;62.10
4858;BME280;58975;51.978;8.472;2022-07-29T14:23:31;100278.53;;;23.74;63.63
4858;BME280;58975;51.978;8.472;2022-07-29T14:28:27;100276.81;;;23.80;66.00
4858;BME280;58975;51.978;8.472;2022-07-29T14:33:24;100281.88;;;23.83;63.15
4858;BME280;58975;51.978;8.472;2022-07-29T14:38:20;100286.41;;;23.95;65.06
4858;BME280;58975;51.978;8.472;2022-07-29T14:43:22;100280.38;;;23.80;64.11
4858;BME280;58975;51.978;8.472;2022-07-29T14:48:18;100285.25;;;23.52;67.75
4858;BME280;58975;51.978;8.472;2022-07-29T14:53:14;100290.84;;;23.31;68.68
4858;BME280;58975;51.978;8.472;2022-07-29T14:58:11;100295.22;;;23.19;69.07
4858;BME280;58975;51.978;8.472;2022-07-29T15:03:12;100297.72;;;23.14;69.94
4858;BME280;58975;51.978;8.472;2022-07-29T15:08:20;100299.41;;;23.15;70.89
4858;BME280;58975;51.978;8.472;2022-07-29T15:13:16;100301.91;;;23.09;70.77
4858;BME280;58975;51.978;8.472;2022-07-29T15:18:12;100293.94;;;22.95;71.71
4858;BME280;58975;51.978;8.472;2022-07-29T15:23:09;100296.00;;;22.86;74.99
4858;BME280;58975;51.978;8.472;2022-07-29T15:28:05;100300.16;;;22.82;73.82
4858;BME280;58975;51.978;8.472;2022-07-29T15:33:04;100290.16;;;22.76;76.64
4858;BME280;58975;51.978;8.472;2022-07-29T15:38:01;100290.34;;;22.68;75.80
4858;BME280;58975;51.978;8.472;2022-07-29T15:42:57;100279.63;;;22.60;75.31
4858;BME280;58975;51.978;8.472;2022-07-29T15:47:56;100275.03;;;22.54;77.98
4858;BME280;58975;51.978;8.472;2022-07-29T15:52:53;100273.94;;;22.48;75.48
4858;BME280;58975;51.978;8.472;2022-07-29T15:57:49;100277.28;;;22.50;76.10
4858;BME280;58975;51.978;8.472;2022-07-29T16:02:46;100271.84;;;22.44;76.85
4858;BME280;58975;51.978;8.472;2022-07-29T16:07:42;100269.53;;;22.41;76.67
4858;BME280;58975;51.978;8.472;2022-07-29T16:12:38;100265.78;;;22.42;82.26
4858;BME280;58975;51.978;8.472;2022-07-29T16:17:35;100273.88;;;22.35;75.74
4858;BME280;58975;51.978;8.472;2022-07-29T16:22:32;100273.25;;;22.27;75.76
4858;BME280;58975;51.978;8.472;2022-07-29T16:27:28;100272.78;;;22.16;82.97
4858;BME280;58975;51.978;8.472;2022-07-29T16:32:33;100285.47;;;21.82;93.22
4858;BME280;58975;51.978;8.472;2022-07-29T16:37:29;100273.19;;;21.51;100.00
4858;BME280;58975;51.978;8.472;2022-07-29T16:42:30;100277.56;;;21.25;100.00
4858;BME280;58975;51.978;8.472;2022-07-29T16:47:42;100269.16;;;21.19;100.00
4858;BME280;58975;51.978;8.472;2022-07-29T16:52:39;100236.53;;;20.64;100.00
4858;BME280;58975;51.978;8.472;2022-07-29T16:57:35;100224.09;;;19.83;100.00
4858;BME280;58975;51.978;8.472;2022-07-29T17:02:31;100215.34;;;19.29;100.00
4858;BME280;58975;51.978;8.472;2022-07-29T17:07:28;100212.53;;;19.22;100.00
4858;BME280;58975;51.978;8.472;2022-07-29T17:12:24;100213.22;;;19.24;100.00
4858;BME280;58975;51.978;8.472;2022-07-29T17:17:21;100218.97;;;19.21;100.00
4858;BME280;58975;51.978;8.472;2022-07-29T17:22:34;100223.09;;;19.32;100.00
4858;BME280;58975;51.978;8.472;2022-07-29T17:27:32;100224.16;;;19.46;100.00
4858;BME280;58975;51.978;8.472;2022-07-29T17:32:28;100241.03;;;19.62;100.00
4858;BME280;58975;51.978;8.472;2022-07-29T17:37:24;100262.09;;;19.81;100.00
4858;BME280;58975;51.978;8.472;2022-07-29T17:42:21;100260.13;;;19.90;100.00
4858;BME280;58975;51.978;8.472;2022-07-29T17:47:17;100273.63;;;20.05;100.00
4858;BME280;58975;51.978;8.472;2022-07-29T17:52:13;100269.16;;;20.12;100.00
4858;BME280;58975;51.978;8.472;2022-07-29T17:57:11;100277.34;;;20.04;100.00
4858;BME280;58975;51.978;8.472;2022-07-29T18:02:07;100283.44;;;19.91;100.00
4858;BME280;58975;51.978;8.472;2022-07-29T18:07:03;100297.78;;;19.77;100.00
4858;BME280;58975;51.978;8.472;2022-07-29T18:12:00;100292.53;;;19.61;100.00
4858;BME280;58975;51.978;8.472;2022-07-29T18:16:56;100299.81;;;19.37;100.00
4858;BME280;58975;51.978;8.472;2022-07-29T18:21:53;100294.72;;;19.05;100.00
4858;BME280;58975;51.978;8.472;2022-07-29T18:26:53;100293.25;;;18.72;100.00
4858;BME280;58975;51.978;8.472;2022-07-29T18:31:49;100287.75;;;18.26;100.00
4858;BME280;58975;51.978;8.472;2022-07-29T18:36:46;100291.25;;;17.80;100.00
4858;BME280;58975;51.978;8.472;2022-07-29T18:41:42;100294.31;;;17.61;100.00
4858;BME280;58975;51.978;8.472;2022-07-29T18:46:46;100284.88;;;17.48;100.00
4858;BME280;58975;51.978;8.472;2022-07-29T18:51:50;100282.56;;;17.29;100.00
4858;BME280;58975;51.978;8.472;2022-07-29T18:56:47;100285.78;;;17.17;100.00
4858;BME280;58975;51.978;8.472;2022-07-29T19:01:45;100299.53;;;17.06;100.00
4858;BME280;58975;51.978;8.472;2022-07-29T19:06:42;100306.59;;;17.07;100.00
4858;BME280;58975;51.978;8.472;2022-07-29T19:11:38;100312.19;;;17.13;100.00
4858;BME280;58975;51.978;8.472;2022-07-29T19:16:35;100308.13;;;17.17;100.00
4858;BME280;58975;51.978;8.472;2022-07-29T19:21:32;100302.72;;;17.41;100.00
4858;BME280;58975;51.978;8.472;2022-07-29T19:26:28;100306.28;;;17.42;100.00
4858;BME280;58975;51.978;8.472;2022-07-29T19:31:24;100322.25;;;17.35;100.00
4858;BME280;58975;51.978;8.472;2022-07-29T19:36:21;100338.41;;;17.35;100.00
4858;BME280;58975;51.978;8.472;2022-07-29T19:41:17;100344.44;;;17.29;100.00
4858;BME280;58975;51.978;8.472;2022-07-29T19:46:14;100360.78;;;17.20;100.00
4858;BME280;58975;51.978;8.472;2022-07-29T19:51:11;100380.47;;;17.20;100.00
4858;BME280;58975;51.978;8.472;2022-07-29T19:56:07;100395.94;;;17.34;100.00
4858;BME280;58975;51.978;8.472;2022-07-29T20:01:04;100412.94;;;17.35;100.00
4858;BME280;58975;51.978;8.472;2022-07-29T20:06:06;100418.47;;;17.33;100.00
4858;BME280;58975;51.978;8.472;2022-07-29T20:11:03;100419.97;;;17.20;100.00
4858;BME280;58975;51.978;8.472;2022-07-29T20:16:00;100426.53;;;17.09;100.00
4858;BME280;58975;51.978;8.472;2022-07-29T20:20:57;100430.16;;;16.92;100.00
4858;BME280;58975;51.978;8.472;2022-07-29T20:25:55;100430.47;;;16.81;100.00
4858;BME280;58975;51.978;8.472;2022-07-29T20:30:51;100433.47;;;16.70;100.00
4858;BME280;58975;51.978;8.472;2022-07-29T20:35:48;100439.78;;;16.61;100.00
4858;BME280;58975;51.978;8.472;2022-07-29T20:40:44;100441.56;;;16.52;100.00
4858;BME280;58975;51.978;8.472;2022-07-29T20:45:41;100448.75;;;16.43;100.00
4858;BME280;58975;51.978;8.472;2022-07-29T20:50:37;100459.63;;;16.34;100.00
4858;BME280;58975;51.978;8.472;2022-07-29T20:55:33;100462.03;;;16.19;100.00
4858;BME280;58975;51.978;8.472;2022-07-29T21:00:30;100470.13;;;16.27;100.00
4858;BME280;58975;51.978;8.472;2022-07-29T21:05:26;100465.84;;;16.34;100.00
4858;BME280;58975;51.978;8.472;2022-07-29T21:10:23;100462.97;;;16.36;100.00
4858;BME280;58975;51.978;8.472;2022-07-29T21:15:20;100480.28;;;16.33;100.00
4858;BME280;58975;51.978;8.472;2022-07-29T21:20:18;100474.38;;;16.30;100.00
4858;BME280;58975;51.978;8.472;2022-07-29T21:25:14;100484.41;;;16.28;100.00
4858;BME280;58975;51.978;8.472;2022-07-29T21:30:11;100488.59;;;16.22;100.00
4858;BME280;58975;51.978;8.472;2022-07-29T21:35:07;100492.34;;;16.29;100.00
4858;BME280;58975;51.978;8.472;2022-07-29T21:40:24;100489.66;;;16.29;100.00
4858;BME280;58975;51.978;8.472;2022-07-29T21:45:20;100497.59;;;16.39;100.00
4858;BME280;58975;51.978;8.472;2022-07-29T21:50:16;100498.28;;;16.41;100.00
4858;BME280;58975;51.978;8.472;2022-07-29T21:55:13;100491.97;;;16.24;100.00
4858;BME280;58975;51.978;8.472;2022-07-29T22:00:11;100488.81;;;16.03;100.00
4858;BME280;58975;51.978;8.472;2022-07-29T22:05:11;100496.16;;;16.01;100.00
4858;BME280;58975;51.978;8.472;2022-07-29T22:10:08;100494.59;;;16.16;100.00
4858;BME280;58975;51.978;8.472;2022-07-29T22:15:06;100497.44;;;16.15;100.00
4858;BME280;58975;51.978;8.472;2022-07-29T22:20:04;100500.91;;;16.07;100.00
4858;BME280;58975;51.978;8.472;2022-07-29T22:25:01;100505.97;;;16.10;100.00
4858;BME280;58975;51.978;8.472;2022-07-29T22:29:57;100501.66;;;16.17;100.00
4858;BME280;58975;51.978;8.472;2022-07-29T22:34:54;100501.84;;;16.24;100.00
4858;BME280;58975;51.978;8.472;2022-07-29T22:39:50;100501.66;;;16.17;100.00
4858;BME280;58975;51.978;8.472;2022-07-29T22:44:46;100503.22;;;16.02;100.00
4858;BME280;58975;51.978;8.472;2022-07-29T22:49:43;100503.75;;;16.05;100.00
4858;BME280;58975;51.978;8.472;2022-07-29T22:54:39;100505.44;;;16.06;100.00
4858;BME280;58975;51.978;8.472;2022-07-29T22:59:36;100501.53;;;16.01;100.00
4858;BME280;58975;51.978;8.472;2022-07-29T23:04:32;100494.97;;;16.03;100.00
4858;BME280;58975;51.978;8.472;2022-07-29T23:09:29;100490.84;;;16.09;100.00
4858;BME280;58975;51.978;8.472;2022-07-29T23:14:25;100496.84;;;16.03;100.00
4858;BME280;58975;51.978;8.472;2022-07-29T23:19:21;100501.13;;;15.96;100.00
4858;BME280;58975;51.978;8.472;2022-07-29T23:24:18;100499.22;;;16.06;100.00
4858;BME280;58975;51.978;8.472;2022-07-29T23:29:14;100492.94;;;16.15;100.00
4858;BME280;58975;51.978;8.472;2022-07-29T23:34:11;100490.91;;;16.17;100.00
4858;BME280;58975;51.978;8.472;2022-07-29T23:39:07;100483.00;;;16.16;100.00
4858;BME280;58975;51.978;8.472;2022-07-29T23:44:07;100489.72;;;15.94;100.00
4858;BME280;58975;51.978;8.472;2022-07-29T23:49:03;100482.06;;;15.99;100.00
4858;BME280;58975;51.978;8.472;2022-07-29T23:54:00;100494.47;;;16.00;100.00
4858;BME280;58975;51.978;8.472;2022-07-29T23:58:57;100495.94;;;15.94;100.00
